createdAt,value
2017-02-18T00:00:03.250Z,0
2017-02-18T00:05:03.179Z,0
2017-02-18T00:10:03.189Z,0
2017-02-18T00:15:03.202Z,0
2017-02-18T00:20:03.223Z,0
2017-02-18T00:25:03.193Z,0
2017-02-18T00:30:03.223Z,0
2017-02-18T00:35:03.247Z,0
2017-02-18T00:40:03.238Z,0
2017-02-18T00:45:03.251Z,0
2017-02-18T00:50:03.257Z,0
2017-02-18T00:55:03.282Z,0
2017-02-18T01:00:03.248Z,0
2017-02-18T01:05:02.567Z,0
2017-02-18T01:10:02.609Z,0
2017-02-18T01:15:02.554Z,0
2017-02-18T01:20:02.563Z,0
2017-02-18T01:25:02.531Z,0
2017-02-18T01:30:02.551Z,0
2017-02-18T01:35:02.551Z,0
2017-02-18T01:40:02.570Z,0
2017-02-18T01:45:02.558Z,0
2017-02-18T01:50:02.570Z,0
2017-02-18T01:55:02.562Z,0
2017-02-18T02:00:02.517Z,0
2017-02-18T02:05:02.498Z,0
2017-02-18T02:10:02.546Z,0
2017-02-18T02:15:02.468Z,0
2017-02-18T02:20:03.471Z,0
2017-02-18T02:25:02.440Z,0
2017-02-18T02:30:03.398Z,0
2017-02-18T02:35:03.405Z,0
2017-02-18T02:40:03.425Z,0
2017-02-18T02:45:03.386Z,0
2017-02-18T02:50:03.419Z,0
2017-02-18T02:55:10.385Z,0
2017-02-18T03:00:03.348Z,0
2017-02-18T03:05:03.368Z,0
2017-02-18T03:10:03.338Z,0
2017-02-18T03:15:03.294Z,0
2017-02-18T03:20:03.347Z,0
2017-02-18T03:25:03.298Z,0
2017-02-18T03:30:03.270Z,0
2017-02-18T03:35:03.276Z,0
2017-02-18T03:40:03.289Z,0
2017-02-18T03:45:03.300Z,0
2017-02-18T03:50:03.288Z,0
2017-02-18T03:55:03.279Z,0
2017-02-18T04:00:03.284Z,0
2017-02-18T04:05:03.307Z,0
2017-02-18T04:10:03.350Z,0
2017-02-18T04:15:03.391Z,0
2017-02-18T04:20:03.381Z,0
2017-02-18T04:25:03.375Z,0
2017-02-18T04:30:03.385Z,0
2017-02-18T04:35:03.444Z,0
2017-02-18T04:40:03.432Z,0
2017-02-18T04:45:03.454Z,0
2017-02-18T04:50:03.469Z,0
2017-02-18T04:55:03.471Z,0
2017-02-18T05:00:03.441Z,0
2017-02-18T05:05:03.506Z,0
2017-02-18T05:10:02.498Z,0
2017-02-18T05:15:03.480Z,0
2017-02-18T05:20:02.488Z,0
2017-02-18T05:25:03.633Z,0
2017-02-18T05:30:02.959Z,0
2017-02-18T05:35:02.947Z,0
2017-02-18T05:40:03.123Z,0
2017-02-18T05:45:03.188Z,0
2017-02-18T05:50:03.220Z,0
2017-02-18T05:55:03.195Z,0
2017-02-18T06:00:03.204Z,0
2017-02-18T06:05:03.202Z,0
2017-02-18T06:10:03.319Z,0
2017-02-18T06:15:03.282Z,2
2017-02-18T06:20:03.270Z,6
2017-02-18T06:25:03.365Z,14
2017-02-18T06:30:03.403Z,28
2017-02-18T06:35:03.413Z,38
2017-02-18T06:40:03.511Z,49
2017-02-18T06:45:02.502Z,55
2017-02-18T06:50:02.548Z,64
2017-02-18T06:55:02.537Z,94
2017-02-18T07:00:02.541Z,151
2017-02-18T07:05:02.571Z,214
2017-02-18T07:10:02.649Z,328
2017-02-18T07:15:02.634Z,398
2017-02-18T07:20:02.644Z,613
2017-02-18T07:25:02.685Z,693
2017-02-18T07:30:03.417Z,838
2017-02-18T07:35:02.519Z,781
2017-02-18T07:40:03.340Z,919
2017-02-18T07:45:03.308Z,972
2017-02-18T07:50:03.088Z,1000
2017-02-18T07:55:02.784Z,1000
2017-02-18T08:00:02.787Z,1000
2017-02-18T08:05:02.682Z,1000
2017-02-18T08:10:02.616Z,1000
2017-02-18T08:15:03.434Z,1000
2017-02-18T08:20:03.232Z,2000
2017-02-18T08:25:03.172Z,2000
2017-02-18T08:30:03.235Z,2000
2017-02-18T08:35:03.266Z,2000
2017-02-18T08:40:03.180Z,3000
2017-02-18T08:45:02.910Z,4000
2017-02-18T10:10:02.845Z,18000
2017-02-18T10:15:02.997Z,36000
2017-02-18T10:20:03.138Z,39000
2017-02-18T10:25:02.661Z,44000
2017-02-18T10:30:03.278Z,46000
2017-02-18T10:35:02.723Z,46000
2017-02-18T10:40:03.205Z,24000
2017-02-18T10:45:03.519Z,44000
2017-02-18T10:50:02.658Z,41000
2017-02-18T10:55:02.817Z,44000
2017-02-18T11:00:03.343Z,43000
2017-02-18T11:05:03.213Z,39000
2017-02-18T11:10:03.401Z,41000
2017-02-18T11:15:03.298Z,48000
2017-02-18T11:20:02.716Z,42000
2017-02-18T11:25:03.104Z,46000
2017-02-18T11:30:02.849Z,16000
2017-02-18T11:35:03.224Z,36000
2017-02-18T11:40:03.082Z,43000
2017-02-18T11:45:03.334Z,45000
2017-02-18T11:50:03.306Z,42000
2017-02-18T11:55:02.690Z,34000
2017-02-18T12:00:02.936Z,38000
2017-02-18T12:05:03.127Z,21000
2017-02-18T12:10:03.236Z,27000
2017-02-18T12:15:02.471Z,15000
2017-02-18T12:20:03.266Z,18000
2017-02-18T12:25:02.788Z,22000
2017-02-18T12:30:02.658Z,34000
2017-02-18T12:35:03.251Z,30000
2017-02-18T12:40:02.841Z,36000
2017-02-18T12:45:03.227Z,40000
2017-02-18T12:50:03.474Z,40000
2017-02-18T12:55:03.420Z,23000
2017-02-18T13:00:03.323Z,11000
2017-02-18T13:05:03.132Z,19000
2017-02-18T13:10:02.614Z,9000
2017-02-18T13:15:03.308Z,7000
2017-02-18T13:20:03.263Z,6000
2017-02-18T13:25:03.215Z,6000
2017-02-18T13:30:02.924Z,7000
2017-02-18T13:35:02.704Z,6000
2017-02-18T13:40:02.760Z,5000
2017-02-18T13:45:02.552Z,5000
2017-02-18T13:50:03.296Z,28000
2017-02-18T13:55:03.438Z,17000
2017-02-18T14:00:03.434Z,24000
2017-02-18T14:05:03.168Z,7000
2017-02-18T14:10:03.026Z,6000
2017-02-18T14:15:02.942Z,4000
2017-02-18T14:20:02.970Z,3000
2017-02-18T14:25:02.989Z,3000
2017-02-18T14:30:02.933Z,3000
2017-02-18T14:35:02.744Z,3000
2017-02-18T14:40:02.581Z,3000
2017-02-18T14:45:02.766Z,2000
2017-02-18T14:50:03.380Z,2000
2017-02-18T14:55:03.188Z,2000
2017-02-18T15:00:03.138Z,2000
2017-02-18T15:05:02.853Z,2000
2017-02-18T15:10:02.719Z,2000
2017-02-18T15:15:02.608Z,2000
2017-02-18T15:20:03.482Z,2000
2017-02-18T15:25:02.744Z,2000
2017-02-18T15:30:03.185Z,2000
2017-02-18T15:35:03.241Z,2000
2017-02-18T15:40:03.140Z,2000
2017-02-18T15:45:03.014Z,2000
2017-02-18T15:50:03.330Z,2000
2017-02-18T15:55:03.371Z,3000
2017-02-18T16:00:03.115Z,1000
2017-02-18T16:05:03.226Z,1000
2017-02-18T16:10:03.208Z,1000
2017-02-18T16:15:03.375Z,1000
2017-02-18T16:20:03.234Z,1000
2017-02-18T16:25:03.093Z,1000
2017-02-18T16:30:03.201Z,736
2017-02-18T16:35:03.016Z,472
2017-02-18T16:40:03.247Z,356
2017-02-18T16:45:03.356Z,296
2017-02-18T16:50:03.246Z,165
2017-02-18T16:55:03.453Z,96
2017-02-18T17:00:03.387Z,72
2017-02-18T17:05:03.311Z,67
2017-02-18T17:10:03.302Z,54
2017-02-18T17:15:03.309Z,40
2017-02-18T17:20:03.273Z,24
2017-02-18T17:25:03.506Z,10
2017-02-18T17:30:02.502Z,3
2017-02-18T17:35:03.197Z,1
2017-02-18T17:40:03.109Z,0
2017-02-18T17:45:03.203Z,0
2017-02-18T17:50:03.039Z,0
2017-02-18T17:55:02.946Z,0
2017-02-18T18:00:02.777Z,0
2017-02-18T18:05:02.804Z,0
2017-02-18T18:10:02.672Z,0
2017-02-18T18:15:02.466Z,0
2017-02-18T18:20:03.571Z,0
2017-02-18T18:25:03.392Z,0
2017-02-18T18:30:03.190Z,0
2017-02-18T18:35:03.050Z,0
2017-02-18T18:40:02.829Z,0
2017-02-18T18:45:02.728Z,0
2017-02-18T18:50:02.624Z,0
2017-02-18T18:55:03.474Z,0
2017-02-18T19:00:03.259Z,0
2017-02-18T19:05:03.158Z,0
2017-02-18T19:10:03.063Z,0
2017-02-18T19:15:03.026Z,0
2017-02-18T19:20:03.043Z,0
2017-02-18T19:25:02.964Z,0
2017-02-18T19:30:02.739Z,0
2017-02-18T19:35:02.643Z,0
2017-02-18T19:40:02.750Z,0
2017-02-18T19:45:02.822Z,0
2017-02-18T19:50:02.838Z,0
2017-02-18T19:55:02.714Z,0
2017-02-18T20:00:02.691Z,0
2017-02-18T20:05:02.867Z,0
2017-02-18T20:10:02.761Z,0
2017-02-18T20:15:02.906Z,0
2017-02-18T20:20:02.890Z,0
2017-02-18T20:25:02.753Z,0
2017-02-18T20:30:02.611Z,0
2017-02-18T20:35:03.267Z,0
2017-02-18T20:40:03.096Z,0
2017-02-18T20:45:02.875Z,0
2017-02-18T20:50:02.734Z,0
2017-02-18T20:55:02.805Z,0
2017-02-18T21:00:02.986Z,0
2017-02-18T21:05:02.878Z,0
2017-02-18T21:10:02.803Z,0
2017-02-18T21:15:02.657Z,0
2017-02-18T21:20:02.743Z,0
2017-02-18T21:25:02.582Z,0
2017-02-18T21:30:03.285Z,0
2017-02-18T21:35:03.007Z,0
2017-02-18T21:40:02.870Z,0
2017-02-18T21:45:02.623Z,0
2017-02-18T21:50:02.605Z,0
2017-02-18T21:55:03.408Z,0
2017-02-18T22:00:03.452Z,0
2017-02-18T22:05:02.635Z,0
2017-02-18T22:10:02.429Z,0
2017-02-18T22:15:03.109Z,0
2017-02-18T22:20:02.889Z,0
2017-02-18T22:25:02.750Z,0
2017-02-18T22:30:03.193Z,0
2017-02-18T22:35:02.823Z,0
2017-02-18T22:40:02.596Z,0
2017-02-18T22:45:03.435Z,0
2017-02-18T22:50:03.242Z,0
2017-02-18T22:55:02.977Z,0
2017-02-18T23:00:02.813Z,0
2017-02-18T23:05:02.543Z,0
2017-02-18T23:10:03.385Z,0
2017-02-18T23:15:03.174Z,0
2017-02-18T23:20:03.287Z,0
2017-02-18T23:25:03.344Z,0
2017-02-18T23:30:03.180Z,0
2017-02-18T23:35:03.378Z,0
2017-02-18T23:40:03.267Z,0
2017-02-18T23:45:03.165Z,0
2017-02-18T23:50:03.096Z,0
2017-02-18T23:55:02.953Z,0
